createdAt,value
2022-09-02T00:02:02.287Z,48.62
2022-09-02T00:04:28.952Z,48.75
2022-09-02T00:06:55.513Z,48.76
2022-09-02T00:09:25.000Z,48.74
2022-09-02T00:11:53.172Z,48.82
2022-09-02T00:14:24.837Z,48.75
2022-09-02T00:16:52.297Z,49.33
2022-09-02T00:19:24.483Z,49.65
2022-09-02T00:21:52.214Z,49.41
2022-09-02T00:24:19.031Z,49.49
2022-09-02T00:26:46.340Z,49.42
2022-09-02T00:29:15.411Z,49.83
2022-09-02T00:31:43.791Z,49.42
2022-09-02T00:34:11.093Z,49.75
2022-09-02T00:36:38.171Z,49.70
2022-09-02T00:39:08.247Z,49.82
2022-09-02T00:41:37.602Z,49.90
2022-09-02T00:44:09.141Z,50.01
2022-09-02T00:46:35.998Z,50.50
2022-09-02T00:49:10.667Z,50.74
2022-09-02T00:51:43.233Z,50.59
2022-09-02T00:54:11.571Z,50.22
2022-09-02T00:56:40.593Z,51.05
2022-09-02T00:59:08.036Z,51.05
2022-09-02T01:01:34.661Z,51.10
2022-09-02T01:04:01.240Z,50.85
2022-09-02T01:06:28.591Z,51.71
2022-09-02T01:09:02.838Z,51.87
2022-09-02T01:11:37.531Z,52.29
2022-09-02T01:14:04.273Z,52.24
2022-09-02T01:16:40.733Z,53.22
2022-09-02T01:19:17.616Z,53.21
2022-09-02T01:21:45.945Z,53.99
2022-09-02T01:24:12.833Z,52.64
2022-09-02T01:26:39.317Z,52.79
2022-09-02T01:29:05.842Z,54.34
2022-09-02T01:31:32.365Z,53.30
2022-09-02T01:33:59.518Z,54.38
2022-09-02T01:36:26.088Z,54.94
2022-09-02T01:38:52.634Z,54.67
2022-09-02T01:41:19.128Z,54.86
2022-09-02T01:43:45.610Z,54.51
2022-09-02T01:46:12.195Z,54.34
2022-09-02T01:48:38.995Z,54.80
2022-09-02T01:51:05.636Z,54.91
2022-09-02T01:53:32.609Z,54.55
2022-09-02T01:55:59.239Z,54.65
2022-09-02T01:58:25.723Z,54.56
2022-09-02T02:00:52.757Z,54.58
2022-09-02T02:03:20.229Z,55.17
2022-09-02T02:05:46.806Z,55.57
2022-09-02T02:08:13.283Z,55.31
2022-09-02T02:10:42.636Z,54.99
2022-09-02T02:13:09.625Z,55.62
2022-09-02T02:15:40.432Z,54.95
2022-09-02T02:18:07.898Z,54.94
2022-09-02T02:20:35.326Z,55.07
2022-09-02T02:23:02.280Z,55.48
2022-09-02T02:25:28.849Z,55.27
2022-09-02T02:27:55.387Z,55.08
2022-09-02T02:30:23.627Z,56.39
2022-09-02T02:32:50.380Z,56.50
2022-09-02T02:35:19.132Z,56.54
2022-09-02T02:37:49.048Z,56.06
2022-09-02T02:40:20.270Z,55.87
2022-09-02T02:42:48.158Z,56.03
2022-09-02T02:45:15.495Z,55.85
2022-09-02T02:47:45.978Z,56.21
2022-09-02T02:50:15.703Z,56.75
2022-09-02T02:52:43.518Z,56.44
2022-09-02T02:55:11.923Z,55.89
2022-09-02T02:57:39.897Z,56.14
2022-09-02T03:00:13.401Z,58.28
2022-09-02T03:02:40.216Z,57.77
2022-09-02T03:05:08.690Z,56.66
2022-09-02T03:07:35.323Z,57.93
2022-09-02T03:10:08.134Z,57.30
2022-09-02T03:12:36.309Z,56.70
2022-09-02T03:15:03.679Z,57.54
2022-09-02T03:17:30.255Z,57.36
2022-09-02T03:19:59.329Z,56.87
2022-09-02T03:22:28.956Z,58.14
2022-09-02T03:24:55.448Z,57.33
2022-09-02T03:27:22.099Z,57.68
2022-09-02T03:29:48.571Z,57.87
2022-09-02T03:32:15.089Z,58.50
2022-09-02T03:34:42.347Z,58.89
2022-09-02T03:37:09.108Z,59.62
2022-09-02T03:39:37.702Z,60.17
2022-09-02T03:42:05.772Z,60.55
2022-09-02T03:44:34.284Z,60.55
2022-09-02T03:47:01.103Z,61.19
2022-09-02T03:49:28.223Z,60.95
2022-09-02T03:51:54.947Z,60.70
2022-09-02T03:54:21.536Z,61.34
2022-09-02T03:56:48.029Z,60.76
2022-09-02T03:59:14.568Z,61.43
2022-09-02T04:01:41.366Z,61.32
2022-09-02T04:04:08.388Z,60.92
2022-09-02T04:06:35.126Z,60.40
2022-09-02T04:09:01.787Z,61.14
2022-09-02T04:11:28.408Z,59.63
2022-09-02T04:13:54.955Z,60.40
2022-09-02T04:17:17.980Z,61.21
2022-09-02T04:20:42.034Z,61.19
2022-09-02T04:23:09.126Z,61.04
2022-09-02T04:25:40.562Z,61.01
2022-09-02T04:28:07.137Z,60.48
2022-09-02T04:30:33.709Z,59.98
2022-09-02T04:33:00.203Z,60.11
2022-09-02T04:35:26.678Z,60.78
2022-09-02T04:37:53.199Z,60.61
2022-09-02T04:40:19.792Z,59.99
2022-09-02T04:42:46.728Z,60.17
2022-09-02T04:45:13.423Z,60.57
2022-09-02T04:47:40.079Z,60.22
2022-09-02T04:50:07.670Z,59.86
2022-09-02T04:52:34.165Z,60.38
2022-09-02T04:55:00.630Z,59.65
2022-09-02T04:57:27.115Z,59.67
2022-09-02T04:59:53.995Z,59.92
2022-09-02T05:02:20.693Z,59.89
2022-09-02T05:04:47.325Z,59.59
2022-09-02T05:07:14.109Z,59.87
2022-09-02T05:09:40.658Z,59.52
2022-09-02T05:12:07.582Z,59.81
2022-09-02T05:14:34.119Z,59.74
2022-09-02T05:17:07.232Z,59.35
2022-09-02T05:19:34.765Z,59.06
2022-09-02T05:22:01.825Z,59.33
2022-09-02T05:24:29.549Z,59.33
2022-09-02T05:26:56.112Z,59.55
2022-09-02T05:29:23.834Z,58.94
2022-09-02T05:31:50.447Z,59.07
2022-09-02T05:34:17.518Z,59.61
2022-09-02T05:36:44.412Z,59.30
2022-09-02T05:39:11.303Z,59.03
2022-09-02T05:41:37.839Z,59.10
2022-09-02T05:44:05.540Z,59.26
2022-09-02T05:46:32.628Z,59.39
2022-09-02T05:49:17.588Z,58.96
2022-09-02T05:51:45.746Z,59.03
2022-09-02T05:54:19.881Z,58.70
2022-09-02T05:56:51.617Z,59.05
2022-09-02T05:59:19.629Z,58.65
2022-09-02T06:01:46.757Z,58.47
2022-09-02T06:04:13.392Z,58.27
2022-09-02T06:06:40.927Z,58.54
2022-09-02T06:09:09.325Z,58.41
2022-09-02T06:11:39.964Z,58.50
2022-09-02T06:14:07.923Z,57.83
2022-09-02T06:16:35.406Z,58.12
2022-09-02T06:19:03.983Z,57.89
2022-09-02T06:21:31.830Z,57.75
2022-09-02T06:23:58.668Z,57.89
2022-09-02T06:26:25.734Z,57.66
2022-09-02T06:28:52.256Z,57.84
2022-09-02T06:31:22.115Z,57.73
2022-09-02T06:33:52.930Z,57.12
2022-09-02T06:36:20.142Z,57.43
2022-09-02T06:38:48.938Z,57.10
2022-09-02T06:41:19.524Z,57.16
2022-09-02T06:43:46.115Z,56.94
2022-09-02T06:46:19.640Z,56.97
2022-09-02T06:48:46.536Z,56.91
2022-09-02T06:51:21.868Z,57.02
2022-09-02T06:53:48.332Z,57.43
2022-09-02T06:56:15.132Z,56.88
2022-09-02T06:58:41.883Z,57.22
2022-09-02T07:01:17.245Z,57.15
2022-09-02T07:04:02.512Z,57.41
2022-09-02T07:06:29.025Z,57.58
2022-09-02T07:08:55.491Z,57.32
2022-09-02T07:11:23.999Z,57.09
2022-09-02T07:13:51.014Z,57.13
2022-09-02T07:16:20.446Z,57.18
2022-09-02T07:18:53.699Z,56.96
2022-09-02T07:21:20.417Z,57.38
2022-09-02T07:23:46.930Z,56.82
2022-09-02T07:26:15.744Z,56.78
2022-09-02T07:28:43.208Z,56.85
2022-09-02T07:31:15.927Z,56.58
2022-09-02T07:33:44.942Z,56.26
2022-09-02T07:36:16.666Z,56.05
2022-09-02T07:38:43.277Z,55.84
2022-09-02T07:41:10.371Z,55.81
2022-09-02T07:43:38.077Z,55.36
2022-09-02T07:46:05.828Z,55.00
2022-09-02T07:48:33.966Z,54.98
2022-09-02T07:51:01.069Z,54.54
2022-09-02T07:53:28.394Z,54.46
2022-09-02T07:55:54.896Z,53.91
2022-09-02T07:58:22.537Z,53.79
2022-09-02T08:00:50.524Z,53.58
2022-09-02T08:03:17.132Z,53.01
2022-09-02T08:05:47.008Z,52.43
2022-09-02T08:08:15.927Z,51.42
2022-09-02T08:10:43.389Z,51.05
2022-09-02T08:13:11.256Z,50.29
2022-09-02T08:15:38.995Z,49.80
2022-09-02T08:18:06.767Z,48.76
2022-09-02T08:20:33.849Z,48.79
2022-09-02T08:23:11.157Z,48.55
2022-09-02T08:25:38.666Z,48.80
2022-09-02T08:28:05.183Z,49.10
2022-09-02T08:30:31.798Z,49.04
2022-09-02T08:32:58.354Z,49.22
2022-09-02T08:35:25.059Z,49.21
2022-09-02T08:37:52.070Z,48.77
2022-09-02T08:40:24.673Z,48.49
2022-09-02T08:42:56.587Z,48.18
2022-09-02T08:45:26.215Z,48.22
2022-09-02T08:48:25.000Z,47.68
2022-09-02T08:50:58.801Z,47.48
2022-09-02T08:53:35.115Z,47.06
2022-09-02T08:56:04.534Z,46.60
2022-09-02T08:58:41.282Z,46.71
2022-09-02T09:01:34.062Z,46.61
2022-09-02T09:04:18.420Z,45.69
2022-09-02T09:06:44.904Z,45.47
2022-09-02T09:09:20.557Z,45.15
2022-09-02T09:12:16.883Z,45.06
2022-09-02T09:15:09.102Z,45.24
2022-09-02T09:18:03.068Z,44.82
2022-09-02T09:20:37.535Z,44.72
2022-09-02T09:23:34.026Z,44.37
2022-09-02T09:26:11.513Z,44.36
2022-09-02T09:28:43.575Z,43.97
2022-09-02T09:31:14.830Z,43.82
2022-09-02T09:33:55.869Z,44.29
2022-09-02T09:36:42.298Z,43.94
2022-09-02T09:39:32.355Z,43.53
2022-09-02T09:42:03.237Z,43.18
2022-09-02T09:44:46.925Z,43.32
2022-09-02T09:47:19.879Z,43.32
2022-09-02T09:49:51.533Z,42.49
2022-09-02T09:52:29.221Z,42.30
2022-09-02T09:55:07.922Z,42.24
2022-09-02T09:57:35.833Z,42.30
2022-09-02T10:00:13.329Z,41.22
2022-09-02T10:02:48.318Z,40.79
2022-09-02T10:05:17.948Z,40.58
2022-09-02T10:07:54.574Z,40.59
2022-09-02T10:10:24.069Z,40.30
2022-09-02T10:12:54.606Z,40.09
2022-09-02T10:15:40.952Z,39.60
2022-09-02T10:18:13.973Z,39.83
2022-09-02T10:21:15.179Z,39.11
2022-09-02T10:23:48.541Z,39.25
2022-09-02T10:26:38.108Z,38.85
2022-09-02T10:29:42.784Z,38.56
2022-09-02T10:32:12.277Z,37.93
2022-09-02T10:34:47.617Z,38.13
2022-09-02T10:37:23.514Z,37.65
2022-09-02T10:40:09.069Z,37.29
2022-09-02T10:43:06.714Z,36.91
2022-09-02T10:45:53.228Z,36.37
2022-09-02T10:48:25.903Z,36.33
2022-09-02T10:51:04.437Z,35.85
2022-09-02T10:53:36.921Z,35.51
2022-09-02T10:56:32.047Z,35.36
2022-09-02T10:59:17.803Z,35.24
2022-09-02T11:01:55.117Z,35.00
2022-09-02T11:04:43.110Z,35.03
2022-09-02T11:07:17.207Z,33.58
2022-09-02T11:09:49.170Z,34.14
2022-09-02T11:12:18.939Z,34.16
2022-09-02T11:14:48.599Z,33.54
2022-09-02T11:17:27.860Z,33.77
2022-09-02T11:20:15.448Z,34.15
2022-09-02T11:23:19.707Z,34.33
2022-09-02T11:25:57.415Z,34.19
2022-09-02T11:28:49.136Z,34.50
2022-09-02T11:31:30.259Z,34.18
2022-09-02T11:34:24.674Z,33.30
2022-09-02T11:36:51.697Z,33.61
2022-09-02T11:40:11.247Z,32.67
2022-09-02T11:42:52.009Z,31.65
2022-09-02T11:45:56.477Z,30.84
2022-09-02T11:49:00.457Z,30.19
2022-09-02T11:51:52.597Z,30.43
2022-09-02T11:54:20.979Z,30.95
2022-09-02T11:56:52.053Z,30.85
2022-09-02T11:59:24.278Z,30.44
2022-09-02T12:01:54.432Z,30.85
2022-09-02T12:04:58.708Z,30.80
2022-09-02T12:07:13.370Z,30.34
2022-09-02T12:09:51.691Z,29.03
2022-09-02T12:12:59.236Z,29.78
2022-09-02T12:15:26.217Z,29.72
2022-09-02T12:17:53.158Z,29.13
2022-09-02T12:20:39.970Z,28.70
2022-09-02T12:23:09.085Z,28.28
2022-09-02T12:26:00.360Z,27.68
2022-09-02T12:28:31.039Z,28.43
2022-09-02T12:31:08.816Z,27.92
2022-09-02T12:33:38.457Z,28.69
2022-09-02T12:36:06.842Z,28.60
2022-09-02T12:38:40.947Z,28.22
2022-09-02T12:41:18.686Z,27.89
2022-09-02T12:44:10.495Z,27.64
2022-09-02T12:46:37.130Z,27.56
2022-09-02T12:49:14.356Z,26.86
2022-09-02T12:52:34.367Z,27.48
2022-09-02T12:55:09.607Z,27.76
2022-09-02T12:57:44.821Z,28.37
2022-09-02T13:00:16.143Z,28.46
2022-09-02T13:03:04.269Z,28.55
2022-09-02T13:05:49.148Z,27.91
2022-09-02T13:08:53.518Z,26.93
2022-09-02T13:11:50.707Z,26.66
2022-09-02T13:14:35.824Z,25.95
2022-09-02T13:17:39.668Z,24.30
2022-09-02T13:20:22.628Z,23.62
2022-09-02T13:23:10.155Z,23.66
2022-09-02T13:25:48.491Z,23.87
2022-09-02T13:28:34.396Z,23.67
2022-09-02T13:31:07.569Z,22.00
2022-09-02T13:33:34.552Z,22.28
2022-09-02T13:36:01.200Z,21.97
2022-09-02T13:38:29.439Z,21.61
2022-09-02T13:40:56.133Z,21.72
2022-09-02T13:43:26.851Z,21.62
2022-09-02T13:45:59.549Z,20.60
2022-09-02T13:48:28.945Z,21.31
2022-09-02T13:50:58.220Z,22.08
2022-09-02T13:53:45.585Z,21.52
2022-09-02T13:56:15.574Z,21.72
2022-09-02T13:58:51.923Z,20.71
2022-09-02T14:01:20.499Z,21.00
2022-09-02T14:03:52.144Z,20.87
2022-09-02T14:06:25.328Z,21.01
2022-09-02T14:08:56.309Z,20.77
2022-09-02T14:11:23.330Z,19.77
2022-09-02T14:13:51.372Z,20.88
2022-09-02T14:16:33.127Z,19.77
2022-09-02T14:19:14.349Z,20.39
2022-09-02T14:21:57.474Z,20.45
2022-09-02T14:24:37.325Z,20.63
2022-09-02T14:27:04.069Z,21.17
2022-09-02T14:29:33.616Z,21.73
2022-09-02T14:32:15.359Z,21.78
2022-09-02T14:34:44.812Z,22.42
2022-09-02T14:37:19.927Z,22.26
2022-09-02T14:40:11.697Z,22.19
2022-09-02T14:42:57.195Z,21.48
2022-09-02T14:45:25.577Z,21.13
2022-09-02T14:47:52.532Z,21.48
2022-09-02T14:50:22.035Z,21.25
2022-09-02T14:52:52.043Z,21.20
2022-09-02T14:56:08.518Z,20.55
2022-09-02T14:58:35.015Z,20.99
2022-09-02T15:01:02.106Z,21.22
2022-09-02T15:03:36.825Z,21.07
2022-09-02T15:06:03.556Z,20.92
2022-09-02T15:08:30.198Z,21.09
2022-09-02T15:10:59.449Z,21.01
2022-09-02T15:13:32.758Z,20.77
2022-09-02T15:15:59.690Z,21.03
2022-09-02T15:18:26.250Z,21.19
2022-09-02T15:20:52.942Z,21.51
2022-09-02T15:23:19.638Z,22.00
2022-09-02T15:25:46.870Z,22.29
2022-09-02T15:28:13.657Z,22.39
2022-09-02T15:30:40.716Z,22.80
2022-09-02T15:33:08.747Z,23.03
2022-09-02T15:35:43.223Z,23.00
2022-09-02T15:38:09.706Z,22.95
2022-09-02T15:40:36.460Z,23.30
2022-09-02T15:43:03.059Z,23.41
2022-09-02T15:45:29.629Z,23.39
2022-09-02T15:47:59.472Z,23.60
2022-09-02T15:50:28.246Z,23.84
2022-09-02T15:52:55.869Z,24.10
2022-09-02T15:55:29.283Z,23.99
2022-09-02T15:57:56.320Z,24.18
2022-09-02T16:00:22.954Z,24.37
2022-09-02T16:02:54.466Z,24.70
2022-09-02T16:05:21.335Z,24.67
2022-09-02T16:07:48.491Z,24.55
2022-09-02T16:10:15.431Z,24.82
2022-09-02T16:12:42.122Z,24.78
2022-09-02T16:15:09.137Z,25.09
2022-09-02T16:17:36.129Z,25.24
2022-09-02T16:20:04.087Z,25.45
2022-09-02T16:22:30.637Z,25.60
2022-09-02T16:24:57.125Z,25.59
2022-09-02T16:27:43.617Z,25.91
2022-09-02T16:30:10.592Z,26.00
2022-09-02T16:32:37.990Z,26.26
2022-09-02T16:35:04.802Z,26.57
2022-09-02T16:37:31.277Z,26.69
2022-09-02T16:39:57.968Z,26.71
2022-09-02T16:42:24.981Z,26.84
2022-09-02T16:44:51.909Z,27.08
2022-09-02T16:47:18.634Z,27.26
2022-09-02T16:49:46.264Z,27.26
2022-09-02T16:52:12.851Z,27.48
2022-09-02T16:54:41.119Z,27.61
2022-09-02T16:57:08.277Z,27.64
2022-09-02T16:59:34.974Z,27.79
2022-09-02T17:02:01.672Z,27.83
2022-09-02T17:04:29.529Z,27.88
2022-09-02T17:06:56.375Z,27.76
2022-09-02T17:09:22.872Z,28.08
2022-09-02T17:11:49.393Z,28.21
2022-09-02T17:14:18.027Z,28.48
2022-09-02T17:16:47.058Z,28.56
2022-09-02T17:19:21.399Z,28.82
2022-09-02T17:21:52.823Z,29.29
2022-09-02T17:24:22.420Z,29.42
2022-09-02T17:26:51.022Z,29.63
2022-09-02T17:32:07.118Z,29.72
2022-09-02T17:34:34.516Z,29.73
2022-09-02T17:37:00.972Z,30.02
2022-09-02T17:39:27.535Z,30.25
2022-09-02T17:42:00.009Z,30.29
2022-09-02T17:44:33.009Z,29.95
2022-09-02T17:46:59.908Z,30.53
2022-09-02T17:49:26.825Z,30.32
2022-09-02T17:51:53.394Z,30.70
2022-09-02T17:54:19.954Z,30.81
2022-09-02T17:57:04.957Z,30.92
2022-09-02T18:00:05.638Z,31.97
2022-09-02T18:03:02.852Z,32.08
2022-09-02T18:05:51.775Z,32.33
2022-09-02T18:09:02.343Z,32.67
2022-09-02T18:11:30.380Z,32.29
2022-09-02T18:14:02.750Z,32.57
2022-09-02T18:16:37.407Z,32.66
2022-09-02T18:19:57.766Z,33.05
2022-09-02T18:22:55.103Z,33.26
2022-09-02T18:25:32.682Z,33.82
2022-09-02T18:28:26.048Z,34.43
2022-09-02T18:30:58.972Z,34.52
2022-09-02T18:33:47.395Z,35.05
2022-09-02T18:36:39.114Z,35.27
2022-09-02T18:39:36.550Z,35.47
2022-09-02T18:42:45.632Z,35.64
2022-09-02T18:45:12.116Z,35.11
2022-09-02T18:47:45.742Z,35.32
2022-09-02T18:50:44.812Z,35.99
2022-09-02T18:53:13.219Z,36.39
2022-09-02T18:55:41.065Z,36.58
2022-09-02T18:58:19.772Z,36.38
2022-09-02T19:00:51.894Z,36.50
2022-09-02T19:03:18.470Z,37.14
2022-09-02T19:05:45.340Z,37.11
2022-09-02T19:08:35.315Z,37.43
2022-09-02T19:11:03.165Z,37.11
2022-09-02T19:13:37.100Z,37.27
2022-09-02T19:16:05.066Z,37.43
2022-09-02T19:18:32.380Z,37.60
2022-09-02T19:20:59.210Z,37.44
2022-09-02T19:23:27.826Z,37.49
2022-09-02T19:25:54.461Z,37.17
2022-09-02T19:28:22.306Z,37.19
2022-09-02T19:30:53.261Z,37.49
2022-09-02T19:33:19.965Z,37.50
2022-09-02T19:35:50.703Z,37.65
2022-09-02T19:38:17.510Z,37.57
2022-09-02T19:40:49.224Z,37.09
2022-09-02T19:43:16.655Z,37.22
2022-09-02T19:45:43.600Z,37.39
2022-09-02T19:48:13.264Z,37.13
2022-09-02T19:50:43.182Z,37.46
2022-09-02T19:53:20.899Z,37.59
2022-09-02T19:55:47.545Z,37.64
2022-09-02T19:58:14.182Z,37.34
2022-09-02T20:00:42.462Z,37.39
2022-09-02T20:03:10.206Z,38.14
2022-09-02T20:05:38.698Z,37.89
2022-09-02T20:08:05.689Z,38.04
2022-09-02T20:10:32.159Z,38.10
2022-09-02T20:12:59.296Z,38.51
2022-09-02T20:15:26.013Z,38.02
2022-09-02T20:17:52.582Z,38.60
2022-09-02T20:20:22.470Z,38.28
2022-09-02T20:22:55.207Z,38.33
2022-09-02T20:25:30.833Z,38.82
2022-09-02T20:28:09.444Z,39.51
2022-09-02T20:30:42.588Z,39.01
2022-09-02T20:33:17.808Z,39.76
2022-09-02T20:36:02.557Z,40.31
2022-09-02T20:38:43.974Z,39.75
2022-09-02T20:41:25.501Z,39.93
2022-09-02T20:44:37.882Z,40.42
2022-09-02T20:47:10.172Z,40.51
2022-09-02T20:49:42.696Z,40.30
2022-09-02T20:52:19.022Z,41.19
2022-09-02T20:54:58.550Z,41.03
2022-09-02T20:57:33.794Z,40.98
2022-09-02T21:00:09.530Z,41.09
2022-09-02T21:02:57.895Z,41.31
2022-09-02T21:05:48.748Z,41.76
2022-09-02T21:08:26.426Z,40.99
2022-09-02T21:10:56.443Z,41.22
2022-09-02T21:13:47.641Z,41.76
2022-09-02T21:16:28.225Z,41.89
2022-09-02T21:19:10.655Z,42.23
2022-09-02T21:21:55.469Z,42.47
2022-09-02T21:24:47.501Z,43.00
2022-09-02T21:27:28.543Z,42.77
2022-09-02T21:30:08.963Z,42.46
2022-09-02T21:32:41.417Z,42.70
2022-09-02T21:35:14.642Z,43.25
2022-09-02T21:37:44.714Z,43.03
2022-09-02T21:40:15.818Z,43.54
2022-09-02T21:43:09.888Z,43.62
2022-09-02T21:45:58.244Z,44.77
2022-09-02T21:48:51.631Z,44.99
2022-09-02T21:51:39.046Z,45.52
2022-09-02T21:54:05.489Z,45.07
2022-09-02T21:56:48.947Z,45.50
2022-09-02T21:59:36.761Z,46.18
2022-09-02T22:02:31.156Z,46.37
2022-09-02T22:05:00.398Z,46.11
2022-09-02T22:07:49.225Z,47.51
2022-09-02T22:10:18.432Z,46.28
2022-09-02T22:12:52.127Z,46.05
2022-09-02T22:16:24.588Z,47.77
2022-09-02T22:19:00.599Z,46.66
2022-09-02T22:21:48.077Z,46.70
2022-09-02T22:24:16.518Z,47.39
2022-09-02T22:27:07.359Z,47.74
2022-09-02T22:29:42.570Z,47.46
2022-09-02T22:32:12.349Z,47.25
2022-09-02T22:34:49.676Z,48.92
2022-09-02T22:37:24.714Z,48.56
2022-09-02T22:39:53.948Z,48.26
2022-09-02T22:42:31.466Z,48.35
2022-09-02T22:45:35.100Z,49.05
2022-09-02T22:48:34.862Z,49.01
2022-09-02T22:51:28.283Z,49.20
2022-09-02T22:53:54.823Z,49.17
2022-09-02T22:56:36.813Z,48.93
2022-09-02T22:59:25.287Z,49.53
2022-09-02T23:01:57.973Z,49.96
2022-09-02T23:04:42.641Z,50.22
2022-09-02T23:07:09.527Z,48.99
2022-09-02T23:09:39.495Z,49.22
2022-09-02T23:12:23.515Z,49.48
2022-09-02T23:14:52.929Z,49.02
2022-09-02T23:17:20.391Z,49.48
2022-09-02T23:20:06.088Z,49.35
2022-09-02T23:22:54.161Z,50.18
2022-09-02T23:25:30.108Z,49.95
2022-09-02T23:28:15.320Z,49.70
2022-09-02T23:31:02.903Z,49.87
2022-09-02T23:34:10.806Z,51.03
2022-09-02T23:36:55.030Z,50.14
2022-09-02T23:39:40.251Z,50.21
2022-09-02T23:42:07.411Z,50.27
2022-09-02T23:44:33.901Z,50.14
2022-09-02T23:47:12.297Z,50.84
2022-09-02T23:49:49.064Z,50.08
2022-09-02T23:52:33.716Z,50.87
2022-09-02T23:55:24.914Z,51.20
2022-09-02T23:57:57.412Z,50.57
